createdAt,value
2017-12-29T00:00:04.750Z,1014
2017-12-29T00:01:04.524Z,1013.98
2017-12-29T00:02:04.382Z,1014.01
2017-12-29T00:03:04.354Z,1014.02
2017-12-29T00:04:04.238Z,1014.01
2017-12-29T00:05:05.228Z,1014.05
2017-12-29T00:06:04.198Z,1014.03
2017-12-29T00:07:05.055Z,1014.1
2017-12-29T00:08:04.946Z,1014.01
2017-12-29T00:09:04.576Z,1014.03
2017-12-29T00:10:04.517Z,1013.99
2017-12-29T00:11:04.588Z,1014.09
2017-12-29T00:12:04.732Z,1014.06
2017-12-29T00:13:04.656Z,1014.06
2017-12-29T00:14:04.617Z,1014.05
2017-12-29T00:15:04.484Z,1014.11
2017-12-29T00:16:04.442Z,1014.08
2017-12-29T00:17:04.244Z,1014.15
2017-12-29T00:18:05.115Z,1014.14
2017-12-29T00:19:05.010Z,1014.16
2017-12-29T00:20:04.708Z,1014.18
2017-12-29T00:21:04.657Z,1014.2
2017-12-29T00:22:04.612Z,1014.2
2017-12-29T00:23:04.502Z,1014.24
2017-12-29T00:24:04.467Z,1014.21
2017-12-29T00:25:04.561Z,1014.22
2017-12-29T00:26:04.600Z,1014.24
2017-12-29T00:27:04.619Z,1014.23
2017-12-29T00:28:04.651Z,1014.23
2017-12-29T00:29:04.715Z,1014.21
2017-12-29T00:30:04.528Z,1014.27
2017-12-29T00:31:04.326Z,1014.23
2017-12-29T00:32:04.165Z,1014.28
2017-12-29T00:33:04.067Z,1014.25
2017-12-29T00:34:04.953Z,1014.3
2017-12-29T00:35:04.923Z,1014.22
2017-12-29T00:36:04.924Z,1014.26
2017-12-29T00:37:04.906Z,1014.24
2017-12-29T00:38:04.676Z,1014.24
2017-12-29T00:39:04.697Z,1014.25
2017-12-29T00:40:04.676Z,1014.2
2017-12-29T00:41:04.734Z,1014.18
2017-12-29T00:42:04.826Z,1014.26
2017-12-29T00:43:04.893Z,1014.27
2017-12-29T00:44:04.825Z,1014.24
2017-12-29T00:45:04.691Z,1014.26
2017-12-29T00:46:04.521Z,1014.25
2017-12-29T00:47:04.444Z,1014.24
2017-12-29T00:48:04.324Z,1014.24
2017-12-29T00:49:04.422Z,1014.28
2017-12-29T00:50:04.460Z,1014.27
2017-12-29T00:51:04.390Z,1014.27
2017-12-29T00:52:05.211Z,1014.3
2017-12-29T00:53:05.024Z,1014.29
2017-12-29T00:54:04.877Z,1014.31
2017-12-29T00:55:05.004Z,1014.29
2017-12-29T00:56:04.888Z,1014.27
2017-12-29T00:57:04.771Z,1014.26
2017-12-29T00:58:04.574Z,1014.29
2017-12-29T00:59:05.937Z,1014.29
2017-12-29T01:00:05.092Z,1014.35
2017-12-29T01:01:04.804Z,1014.27
2017-12-29T01:02:04.818Z,1014.34
2017-12-29T01:03:04.880Z,1014.39
2017-12-29T01:04:04.837Z,1014.42
2017-12-29T01:05:05.033Z,1014.42
2017-12-29T01:06:05.067Z,1014.47
2017-12-29T01:07:05.256Z,1014.49
2017-12-29T01:08:05.245Z,1014.45
2017-12-29T01:09:05.267Z,1014.46
2017-12-29T01:10:05.195Z,1014.49
2017-12-29T01:11:05.414Z,1014.53
2017-12-29T01:12:04.563Z,1014.53
2017-12-29T01:13:05.438Z,1014.56
2017-12-29T01:14:04.609Z,1014.55
2017-12-29T01:15:04.817Z,1014.59
2017-12-29T01:16:04.831Z,1014.51
2017-12-29T01:17:04.839Z,1014.56
2017-12-29T01:18:05.021Z,1014.57
2017-12-29T01:19:05.133Z,1014.59
2017-12-29T01:20:04.903Z,1014.56
2017-12-29T01:21:04.611Z,1014.57
2017-12-29T01:22:04.637Z,1014.6
2017-12-29T01:23:04.609Z,1014.58
2017-12-29T01:24:04.738Z,1014.62
2017-12-29T01:25:04.345Z,1014.59
2017-12-29T01:26:04.449Z,1014.67
2017-12-29T01:27:04.932Z,1014.63
2017-12-29T01:28:05.023Z,1014.69
2017-12-29T01:29:04.334Z,1014.69
2017-12-29T01:30:04.367Z,1014.69
2017-12-29T01:31:04.487Z,1014.74
2017-12-29T01:32:04.460Z,1014.71
2017-12-29T01:33:04.606Z,1014.74
2017-12-29T01:34:04.544Z,1014.71
2017-12-29T01:35:04.670Z,1014.71
2017-12-29T01:36:04.133Z,1014.68
2017-12-29T01:37:04.727Z,1014.73
2017-12-29T01:38:04.264Z,1014.73
2017-12-29T01:39:04.723Z,1014.74
2017-12-29T01:40:04.782Z,1014.72
2017-12-29T01:41:04.961Z,1014.72
2017-12-29T01:42:04.841Z,1014.75
2017-12-29T01:43:04.612Z,1014.77
2017-12-29T01:44:04.142Z,1014.78
2017-12-29T01:45:04.432Z,1014.76
2017-12-29T01:46:04.620Z,1014.81
2017-12-29T01:47:04.911Z,1014.74
2017-12-29T01:48:04.944Z,1014.73
2017-12-29T01:49:04.876Z,1014.79
2017-12-29T01:50:04.984Z,1014.75
2017-12-29T01:51:05.001Z,1014.74
2017-12-29T01:52:04.723Z,1014.72
2017-12-29T01:53:04.593Z,1014.81
2017-12-29T01:54:04.308Z,1014.85
2017-12-29T01:55:04.274Z,1014.83
2017-12-29T01:56:04.444Z,1014.86
2017-12-29T01:57:04.011Z,1014.92
2017-12-29T01:58:04.124Z,1014.9
2017-12-29T01:59:05.262Z,1014.93
2017-12-29T02:00:04.586Z,1014.91
2017-12-29T02:01:04.679Z,1014.94
2017-12-29T02:02:04.623Z,1014.91
2017-12-29T02:03:04.571Z,1014.88
2017-12-29T02:04:04.079Z,1014.85
2017-12-29T02:05:04.190Z,1014.86
2017-12-29T02:06:04.197Z,1014.83
2017-12-29T02:07:04.140Z,1014.88
2017-12-29T02:08:04.201Z,1014.84
2017-12-29T02:09:04.165Z,1014.89
2017-12-29T02:10:04.006Z,1014.88
2017-12-29T02:11:04.892Z,1014.95
2017-12-29T02:12:04.874Z,1014.9
2017-12-29T02:13:04.952Z,1014.88
2017-12-29T02:14:04.092Z,1014.91
2017-12-29T02:15:04.007Z,1014.91
2017-12-29T02:16:04.969Z,1014.94
2017-12-29T02:17:04.962Z,1014.94
2017-12-29T02:18:04.871Z,1014.94
2017-12-29T02:19:04.857Z,1014.98
2017-12-29T02:20:04.875Z,1014.99
2017-12-29T02:21:04.915Z,1015.02
2017-12-29T02:22:05.003Z,1014.97
2017-12-29T02:23:04.121Z,1014.99
2017-12-29T02:24:04.207Z,1015
2017-12-29T02:25:04.192Z,1014.97
2017-12-29T02:26:04.108Z,1014.97
2017-12-29T02:27:04.232Z,1014.96
2017-12-29T02:28:04.257Z,1015.03
2017-12-29T02:29:04.252Z,1015.03
2017-12-29T02:30:04.139Z,1015.03
2017-12-29T02:31:04.287Z,1015.01
2017-12-29T02:32:04.208Z,1015.04
2017-12-29T02:33:04.127Z,1015.04
2017-12-29T02:34:03.994Z,1015.01
2017-12-29T02:35:04.066Z,1015.05
2017-12-29T02:36:04.003Z,1014.98
2017-12-29T02:37:04.808Z,1015.01
2017-12-29T02:38:04.738Z,1015
2017-12-29T02:39:04.758Z,1015.04
2017-12-29T02:40:04.730Z,1015.03
2017-12-29T02:41:04.564Z,1015.02
2017-12-29T02:42:04.561Z,1015.07
2017-12-29T02:43:04.481Z,1015.07
2017-12-29T02:44:04.574Z,1015.05
2017-12-29T02:45:04.571Z,1015.05
2017-12-29T02:46:04.713Z,1015.08
2017-12-29T02:47:04.750Z,1015.07
2017-12-29T02:48:04.693Z,1015.09
2017-12-29T02:49:04.548Z,1015.08
2017-12-29T02:50:04.626Z,1015.11
2017-12-29T02:51:04.715Z,1015.08
2017-12-29T02:52:04.645Z,1015.07
2017-12-29T02:53:04.607Z,1015.05
2017-12-29T02:54:04.726Z,1015.12
2017-12-29T02:55:04.730Z,1015.1
2017-12-29T02:56:04.668Z,1015.08
2017-12-29T02:57:05.878Z,1015.11
2017-12-29T02:58:04.992Z,1015.2
2017-12-29T02:59:04.953Z,1015.18
2017-12-29T03:00:04.798Z,1015.2
2017-12-29T03:01:04.640Z,1015.17
2017-12-29T03:02:04.744Z,1015.19
2017-12-29T03:03:04.751Z,1015.16
2017-12-29T03:04:04.894Z,1015.19
2017-12-29T03:05:04.900Z,1015.18
2017-12-29T03:06:04.915Z,1015.2
2017-12-29T03:07:04.809Z,1015.18
2017-12-29T03:08:04.878Z,1015.18
2017-12-29T03:09:05.126Z,1015.17
2017-12-29T03:10:05.166Z,1015.12
2017-12-29T03:11:05.082Z,1015.1
2017-12-29T03:12:05.007Z,1015.13
2017-12-29T03:13:04.949Z,1015.11
2017-12-29T03:14:04.967Z,1015.14
2017-12-29T03:15:04.982Z,1015.14
2017-12-29T03:16:04.984Z,1015.1
2017-12-29T03:17:05.026Z,1015.11
2017-12-29T03:18:05.114Z,1015.14
2017-12-29T03:19:05.057Z,1015.12
2017-12-29T03:20:05.252Z,1015.15
2017-12-29T03:21:05.159Z,1015.14
2017-12-29T03:22:05.238Z,1015.15
2017-12-29T03:23:05.234Z,1015.15
2017-12-29T03:24:05.106Z,1015.16
2017-12-29T03:25:04.953Z,1015.12
2017-12-29T03:26:05.172Z,1015.13
2017-12-29T03:27:04.901Z,1015.14
2017-12-29T03:28:04.854Z,1015.13
2017-12-29T03:29:04.704Z,1015.15
2017-12-29T03:30:04.655Z,1015.13
2017-12-29T03:31:04.591Z,1015.15
2017-12-29T03:32:04.439Z,1015.14
2017-12-29T03:33:04.322Z,1015.14
2017-12-29T03:34:04.259Z,1015.21
2017-12-29T03:35:04.315Z,1015.18
2017-12-29T03:36:04.276Z,1015.19
2017-12-29T03:37:04.451Z,1015.22
2017-12-29T03:38:04.582Z,1015.21
2017-12-29T03:39:04.539Z,1015.19
2017-12-29T03:40:04.467Z,1015.19
2017-12-29T03:41:04.231Z,1015.21
2017-12-29T03:42:05.186Z,1015.22
2017-12-29T03:43:05.155Z,1015.15
2017-12-29T03:44:04.965Z,1015.2
2017-12-29T03:45:04.806Z,1015.15
2017-12-29T03:46:04.611Z,1015.16
2017-12-29T03:47:04.352Z,1015.16
2017-12-29T03:48:04.322Z,1015.15
2017-12-29T03:49:04.312Z,1015.15
2017-12-29T03:50:05.148Z,1015.16
2017-12-29T03:51:05.056Z,1015.14
2017-12-29T03:52:04.907Z,1015.18
2017-12-29T03:53:04.900Z,1015.18
2017-12-29T03:54:04.902Z,1015.16
2017-12-29T03:55:04.933Z,1015.15
2017-12-29T03:56:03.973Z,1015.17
2017-12-29T03:57:04.795Z,1015.17
2017-12-29T03:58:04.702Z,1015.16
2017-12-29T03:59:04.797Z,1015.16
2017-12-29T04:00:04.860Z,1015.18
2017-12-29T04:01:04.677Z,1015.15
2017-12-29T04:02:04.669Z,1015.12
2017-12-29T04:03:04.677Z,1015.14
2017-12-29T04:04:04.705Z,1015.16
2017-12-29T04:05:04.604Z,1015.22
2017-12-29T04:06:04.545Z,1015.17
2017-12-29T04:07:04.582Z,1015.14
2017-12-29T04:08:04.554Z,1015.18
2017-12-29T04:09:04.440Z,1015.14
2017-12-29T04:10:04.407Z,1015.13
2017-12-29T04:11:04.492Z,1015.09
2017-12-29T04:12:04.584Z,1015.05
2017-12-29T04:13:04.488Z,1015.03
2017-12-29T04:14:04.391Z,1015.03
2017-12-29T04:15:04.147Z,1015.04
2017-12-29T04:16:04.193Z,1015.04
2017-12-29T04:17:04.189Z,1015
2017-12-29T04:18:04.208Z,1014.94
2017-12-29T04:19:04.180Z,1014.94
2017-12-29T04:20:04.179Z,1014.91
2017-12-29T04:21:04.032Z,1014.92
2017-12-29T04:22:04.072Z,1014.87
2017-12-29T04:23:03.928Z,1014.86
2017-12-29T04:24:04.852Z,1014.87
2017-12-29T04:25:03.838Z,1014.85
2017-12-29T04:26:04.547Z,1014.85
2017-12-29T04:27:04.434Z,1014.83
2017-12-29T04:28:04.233Z,1014.8
2017-12-29T04:29:04.408Z,1014.79
2017-12-29T04:30:04.195Z,1014.8
2017-12-29T04:31:04.099Z,1014.82
2017-12-29T04:32:04.812Z,1014.87
2017-12-29T04:33:04.799Z,1014.89
2017-12-29T04:34:05.080Z,1014.91
2017-12-29T04:35:04.196Z,1014.96
2017-12-29T04:36:04.087Z,1014.97
2017-12-29T04:37:03.890Z,1014.97
2017-12-29T04:38:04.626Z,1015.03
2017-12-29T04:39:04.538Z,1014.99
2017-12-29T04:40:04.430Z,1015.04
2017-12-29T04:41:04.304Z,1015.04
2017-12-29T04:42:04.170Z,1015.06
2017-12-29T04:43:04.154Z,1015.05
2017-12-29T04:44:04.009Z,1015.02
2017-12-29T04:45:04.027Z,1015.09
2017-12-29T04:46:03.993Z,1015.1
2017-12-29T04:47:03.925Z,1015.09
2017-12-29T04:48:04.795Z,1015.06
2017-12-29T04:49:04.009Z,1015.11
2017-12-29T04:50:03.999Z,1015.07
2017-12-29T04:51:04.053Z,1015.04
2017-12-29T04:52:04.746Z,1015.02
2017-12-29T04:53:04.761Z,1015.02
2017-12-29T04:54:04.822Z,1015.01
2017-12-29T04:55:04.969Z,1015.01
2017-12-29T04:56:03.961Z,1015
2017-12-29T04:57:04.674Z,1015.03
2017-12-29T04:58:04.500Z,1015.03
2017-12-29T04:59:04.175Z,1015.04
2017-12-29T05:00:04.052Z,1015.07
2017-12-29T05:01:04.071Z,1015.04
2017-12-29T05:02:04.172Z,1015.08
2017-12-29T05:03:04.073Z,1015.08
2017-12-29T05:04:03.988Z,1015.09
2017-12-29T05:05:04.835Z,1015.04
2017-12-29T05:06:04.854Z,1015.14
2017-12-29T05:07:04.812Z,1015.13
2017-12-29T05:08:04.784Z,1015.17
2017-12-29T05:09:04.562Z,1015.2
2017-12-29T05:10:04.660Z,1015.27
2017-12-29T05:11:04.602Z,1015.22
2017-12-29T05:12:04.414Z,1015.19
2017-12-29T05:13:04.480Z,1015.16
2017-12-29T05:14:04.524Z,1015.13
2017-12-29T05:15:04.444Z,1015.15
2017-12-29T05:16:04.396Z,1015.13
2017-12-29T05:17:04.264Z,1015.15
2017-12-29T05:18:04.498Z,1015.15
2017-12-29T05:19:04.490Z,1015.23
2017-12-29T05:20:04.467Z,1015.2
2017-12-29T05:21:04.352Z,1015.26
2017-12-29T05:22:04.514Z,1015.31
2017-12-29T05:23:04.513Z,1015.32
2017-12-29T05:24:04.331Z,1015.28
2017-12-29T05:25:04.290Z,1015.28
2017-12-29T05:26:04.331Z,1015.23
2017-12-29T05:27:04.688Z,1015.24
2017-12-29T05:28:04.547Z,1015.27
2017-12-29T05:29:04.375Z,1015.29
2017-12-29T05:30:04.229Z,1015.3
2017-12-29T05:31:03.907Z,1015.3
2017-12-29T05:32:04.741Z,1015.3
2017-12-29T05:33:04.714Z,1015.3
2017-12-29T05:34:04.653Z,1015.32
2017-12-29T05:35:04.694Z,1015.32
2017-12-29T05:36:04.427Z,1015.31
2017-12-29T05:37:04.390Z,1015.29
2017-12-29T05:38:04.279Z,1015.32
2017-12-29T05:39:04.400Z,1015.31
2017-12-29T05:40:04.431Z,1015.3
2017-12-29T05:41:04.421Z,1015.31
2017-12-29T05:42:04.612Z,1015.34
2017-12-29T05:43:04.786Z,1015.32
2017-12-29T05:44:04.690Z,1015.32
2017-12-29T05:45:04.982Z,1015.34
2017-12-29T05:46:04.635Z,1015.32
2017-12-29T05:47:04.441Z,1015.29
2017-12-29T05:48:04.423Z,1015.31
2017-12-29T05:49:04.603Z,1015.33
2017-12-29T05:50:04.581Z,1015.31
2017-12-29T05:51:04.649Z,1015.3
2017-12-29T05:52:04.652Z,1015.31
2017-12-29T05:53:04.798Z,1015.36
2017-12-29T05:54:04.724Z,1015.36
2017-12-29T05:55:04.742Z,1015.33
2017-12-29T05:56:04.811Z,1015.36
2017-12-29T05:57:04.798Z,1015.34
2017-12-29T05:58:05.723Z,1015.35
2017-12-29T05:59:04.791Z,1015.41
2017-12-29T06:00:04.781Z,1015.41
2017-12-29T06:01:05.630Z,1015.4
2017-12-29T06:02:05.431Z,1015.4
2017-12-29T06:03:05.211Z,1015.41
2017-12-29T06:04:05.102Z,1015.44
2017-12-29T06:05:04.993Z,1015.45
2017-12-29T06:06:04.970Z,1015.45
2017-12-29T06:07:04.857Z,1015.41
2017-12-29T06:08:04.930Z,1015.48
2017-12-29T06:09:04.831Z,1015.45
2017-12-29T06:10:04.900Z,1015.41
2017-12-29T06:11:05.691Z,1015.43
2017-12-29T06:12:04.791Z,1015.41
2017-12-29T06:13:05.675Z,1015.46
2017-12-29T06:14:05.598Z,1015.44
2017-12-29T06:15:05.446Z,1015.44
2017-12-29T06:16:05.461Z,1015.47
2017-12-29T06:17:05.848Z,1015.46
2017-12-29T06:18:04.842Z,1015.47
2017-12-29T06:19:04.872Z,1015.47
2017-12-29T06:20:04.992Z,1015.47
2017-12-29T06:21:04.943Z,1015.45
2017-12-29T06:22:05.051Z,1015.46
2017-12-29T06:23:05.130Z,1015.48
2017-12-29T06:24:05.194Z,1015.48
2017-12-29T06:25:05.122Z,1015.5
2017-12-29T06:26:04.921Z,1015.47
2017-12-29T06:27:04.591Z,1015.5
2017-12-29T06:28:04.578Z,1015.48
2017-12-29T06:29:04.676Z,1015.49
2017-12-29T06:30:04.681Z,1015.48
2017-12-29T06:31:04.651Z,1015.46
2017-12-29T06:32:04.525Z,1015.45
2017-12-29T06:33:04.377Z,1015.45
2017-12-29T06:34:04.341Z,1015.47
2017-12-29T06:35:04.580Z,1015.5
2017-12-29T06:36:04.655Z,1015.5
2017-12-29T06:37:04.556Z,1015.5
2017-12-29T06:38:04.563Z,1015.53
2017-12-29T06:39:04.566Z,1015.51
2017-12-29T06:40:04.709Z,1015.49
2017-12-29T06:41:04.583Z,1015.5
2017-12-29T06:42:04.385Z,1015.51
2017-12-29T06:43:04.324Z,1015.51
2017-12-29T06:44:04.240Z,1015.48
2017-12-29T06:45:04.152Z,1015.47
2017-12-29T06:46:04.198Z,1015.48
2017-12-29T06:47:04.061Z,1015.48
2017-12-29T06:48:03.990Z,1015.47
2017-12-29T06:49:04.939Z,1015.47
2017-12-29T06:50:04.011Z,1015.42
2017-12-29T06:51:03.971Z,1015.38
2017-12-29T06:52:03.995Z,1015.32
2017-12-29T06:53:05.070Z,1015.37
2017-12-29T06:54:04.239Z,1015.34
2017-12-29T06:55:04.351Z,1015.38
2017-12-29T06:56:04.484Z,1015.39
2017-12-29T06:57:04.475Z,1015.38
2017-12-29T06:58:05.441Z,1015.37
2017-12-29T06:59:04.547Z,1015.4
2017-12-29T07:00:05.337Z,1015.42
2017-12-29T07:01:05.356Z,1015.38
2017-12-29T07:02:05.386Z,1015.38
2017-12-29T07:03:05.370Z,1015.4
2017-12-29T07:04:05.283Z,1015.45
2017-12-29T07:05:05.454Z,1015.47
2017-12-29T07:06:05.468Z,1015.52
2017-12-29T07:07:04.474Z,1015.54
2017-12-29T07:08:05.478Z,1015.48
2017-12-29T07:09:04.456Z,1015.48
2017-12-29T07:10:05.450Z,1015.46
2017-12-29T07:11:04.647Z,1015.46
2017-12-29T07:12:04.586Z,1015.45
2017-12-29T07:13:04.554Z,1015.5
2017-12-29T07:14:04.459Z,1015.46
2017-12-29T07:15:04.497Z,1015.49
2017-12-29T07:16:05.467Z,1015.49
2017-12-29T07:17:04.593Z,1015.5
2017-12-29T07:18:04.509Z,1015.48
2017-12-29T07:19:05.437Z,1015.44
2017-12-29T07:20:05.391Z,1015.49
2017-12-29T07:21:05.218Z,1015.49
2017-12-29T07:22:05.087Z,1015.48
2017-12-29T07:23:05.064Z,1015.49
2017-12-29T07:24:05.152Z,1015.48
2017-12-29T07:25:05.090Z,1015.46
2017-12-29T07:26:05.036Z,1015.54
2017-12-29T07:27:04.898Z,1015.51
2017-12-29T07:28:03.939Z,1015.52
2017-12-29T07:29:03.917Z,1015.55
2017-12-29T07:30:03.895Z,1015.52
2017-12-29T07:31:04.644Z,1015.5
2017-12-29T07:32:04.477Z,1015.51
2017-12-29T07:33:04.351Z,1015.49
2017-12-29T07:34:04.523Z,1015.45
2017-12-29T07:35:04.592Z,1015.46
2017-12-29T07:36:04.658Z,1015.47
2017-12-29T07:37:04.782Z,1015.47
2017-12-29T07:38:03.902Z,1015.46
2017-12-29T07:39:03.869Z,1015.52
2017-12-29T07:40:04.227Z,1015.5
2017-12-29T07:41:04.154Z,1015.52
2017-12-29T07:42:04.211Z,1015.54
2017-12-29T07:43:04.262Z,1015.54
2017-12-29T07:44:04.174Z,1015.54
2017-12-29T07:45:04.219Z,1015.59
2017-12-29T07:46:04.330Z,1015.66
2017-12-29T07:47:04.234Z,1015.64
2017-12-29T07:48:04.331Z,1015.67
2017-12-29T07:49:04.312Z,1015.68
2017-12-29T07:50:04.345Z,1015.71
2017-12-29T07:51:04.552Z,1015.71
2017-12-29T07:52:04.600Z,1015.78
2017-12-29T07:53:04.475Z,1015.75
2017-12-29T07:54:04.491Z,1015.75
2017-12-29T07:55:04.460Z,1015.75
2017-12-29T07:56:04.380Z,1015.75
2017-12-29T07:57:04.352Z,1015.78
2017-12-29T07:58:04.370Z,1015.72
2017-12-29T07:59:04.338Z,1015.73
2017-12-29T08:00:04.277Z,1015.74
2017-12-29T08:01:05.118Z,1015.72
2017-12-29T08:02:05.105Z,1015.73
2017-12-29T08:03:04.985Z,1015.74
2017-12-29T08:04:04.974Z,1015.75
2017-12-29T08:05:04.906Z,1015.75
2017-12-29T08:06:04.964Z,1015.76
2017-12-29T08:07:04.940Z,1015.78
2017-12-29T08:08:04.799Z,1015.75
2017-12-29T08:09:04.629Z,1015.73
2017-12-29T08:10:04.673Z,1015.78
2017-12-29T08:11:04.519Z,1015.74
2017-12-29T08:12:04.275Z,1015.8
2017-12-29T08:13:05.081Z,1015.77
2017-12-29T08:14:05.162Z,1015.77
2017-12-29T08:15:04.918Z,1015.81
2017-12-29T08:16:05.008Z,1015.82
2017-12-29T08:17:05.086Z,1015.76
2017-12-29T08:18:05.101Z,1015.78
2017-12-29T08:19:04.971Z,1015.79
2017-12-29T08:20:04.868Z,1015.82
2017-12-29T08:21:04.815Z,1015.77
2017-12-29T08:22:05.001Z,1015.79
2017-12-29T08:23:05.032Z,1015.76
2017-12-29T08:24:05.049Z,1015.77
2017-12-29T08:25:05.095Z,1015.71
2017-12-29T08:26:05.234Z,1015.72
2017-12-29T08:27:05.262Z,1015.75
2017-12-29T08:28:04.223Z,1015.67
2017-12-29T08:29:04.985Z,1015.68
2017-12-29T08:30:05.007Z,1015.67
2017-12-29T08:31:04.971Z,1015.72
2017-12-29T08:32:04.928Z,1015.72
2017-12-29T08:33:04.794Z,1015.73
2017-12-29T08:34:04.827Z,1015.73
2017-12-29T08:35:05.254Z,1015.72
2017-12-29T08:36:04.288Z,1015.72
2017-12-29T08:37:04.359Z,1015.72
2017-12-29T08:38:04.535Z,1015.72
2017-12-29T08:39:04.555Z,1015.69
2017-12-29T08:40:04.638Z,1015.77
2017-12-29T08:41:04.654Z,1015.69
2017-12-29T08:42:04.618Z,1015.67
2017-12-29T08:43:04.585Z,1015.69
2017-12-29T08:44:04.666Z,1015.67
2017-12-29T08:45:04.629Z,1015.69
2017-12-29T08:46:04.781Z,1015.68
2017-12-29T08:47:05.038Z,1015.63
2017-12-29T08:48:05.555Z,1015.63
2017-12-29T08:49:04.785Z,1015.63
2017-12-29T08:50:04.752Z,1015.59
2017-12-29T08:51:04.885Z,1015.57
2017-12-29T08:52:04.921Z,1015.59
2017-12-29T08:53:05.004Z,1015.55
2017-12-29T08:54:05.377Z,1015.56
2017-12-29T08:55:04.367Z,1015.51
2017-12-29T08:56:04.271Z,1015.54
2017-12-29T08:57:04.423Z,1015.55
2017-12-29T08:58:04.450Z,1015.55
2017-12-29T08:59:04.600Z,1015.51
2017-12-29T09:00:04.722Z,1015.52
2017-12-29T09:01:04.756Z,1015.59
2017-12-29T09:02:04.673Z,1015.56
2017-12-29T09:02:22.839Z,1015.52
2017-12-29T09:03:23.050Z,1015.55
2017-12-29T09:04:24.058Z,1015.51
2017-12-29T09:05:23.198Z,1015.51
2017-12-29T09:06:23.469Z,1015.57
2017-12-29T09:07:22.827Z,1015.57
2017-12-29T09:08:22.987Z,1015.55
2017-12-29T09:09:23.245Z,1015.58
2017-12-29T09:10:23.504Z,1015.55
2017-12-29T09:11:22.931Z,1015.56
2017-12-29T09:12:23.130Z,1015.56
2017-12-29T09:13:23.338Z,1015.57
2017-12-29T09:14:23.451Z,1015.59
2017-12-29T09:15:23.043Z,1015.6
2017-12-29T09:16:23.260Z,1015.56
2017-12-29T09:17:23.449Z,1015.63
2017-12-29T09:18:23.420Z,1015.58
2017-12-29T09:19:23.571Z,1015.55
2017-12-29T09:20:23.550Z,1015.57
2017-12-29T09:21:22.682Z,1015.61
2017-12-29T09:22:22.890Z,1015.64
2017-12-29T09:23:23.312Z,1015.64
2017-12-29T09:24:23.198Z,1015.63
2017-12-29T09:25:23.134Z,1015.59
2017-12-29T09:26:23.193Z,1015.58
2017-12-29T09:27:23.443Z,1015.61
2017-12-29T09:28:23.068Z,1015.6
2017-12-29T09:29:23.025Z,1015.59
2017-12-29T09:30:23.223Z,1015.58
2017-12-29T09:31:23.324Z,1015.56
2017-12-29T09:32:23.623Z,1015.57
2017-12-29T09:33:22.964Z,1015.54
2017-12-29T09:34:23.044Z,1015.52
2017-12-29T09:35:23.220Z,1015.49
2017-12-29T09:36:23.119Z,1015.5
2017-12-29T09:37:23.184Z,1015.5
2017-12-29T09:38:23.446Z,1015.41
2017-12-29T09:39:23.516Z,1015.39
2017-12-29T09:40:23.612Z,1015.35
2017-12-29T09:41:22.936Z,1015.29
2017-12-29T09:42:22.992Z,1015.22
2017-12-29T09:43:23.148Z,1015.22
2017-12-29T09:44:23.152Z,1015.22
2017-12-29T09:45:23.358Z,1015.2
2017-12-29T09:46:23.388Z,1015.2
2017-12-29T09:47:23.571Z,1015.18
2017-12-29T09:48:23.687Z,1015.17
2017-12-29T09:49:22.778Z,1015.11
2017-12-29T09:50:22.861Z,1015.15
2017-12-29T09:51:22.882Z,1015.15
2017-12-29T09:52:23.000Z,1015.1
2017-12-29T09:53:23.201Z,1015.09
2017-12-29T09:54:23.439Z,1015.13
2017-12-29T09:55:23.565Z,1015.01
2017-12-29T09:56:23.525Z,1015.07
2017-12-29T09:57:23.675Z,1015.03
2017-12-29T09:58:23.062Z,1014.99
2017-12-29T09:59:23.164Z,1015
2017-12-29T10:00:23.322Z,1015.02
2017-12-29T10:01:23.269Z,1014.96
2017-12-29T10:02:23.178Z,1014.94
2017-12-29T10:03:23.294Z,1014.91
2017-12-29T10:04:22.249Z,1014.89
2017-12-29T10:05:23.198Z,1014.85
2017-12-29T10:06:22.329Z,1014.82
2017-12-29T10:07:22.321Z,1014.79
2017-12-29T10:08:22.440Z,1014.77
2017-12-29T10:09:22.492Z,1014.77
2017-12-29T10:10:22.715Z,1014.74
2017-12-29T10:11:22.825Z,1014.7
2017-12-29T10:12:23.137Z,1014.68
2017-12-29T10:13:23.188Z,1014.64
2017-12-29T10:14:22.333Z,1014.59
2017-12-29T10:15:22.195Z,1014.53
2017-12-29T10:16:23.282Z,1014.53
2017-12-29T10:17:22.260Z,1014.5
2017-12-29T10:18:23.388Z,1014.51
2017-12-29T10:19:22.622Z,1014.48
2017-12-29T10:20:22.489Z,1014.51
2017-12-29T10:21:22.592Z,1014.52
2017-12-29T10:22:22.551Z,1014.51
2017-12-29T10:23:22.365Z,1014.5
2017-12-29T10:24:22.831Z,1014.48
2017-12-29T10:25:22.979Z,1014.42
2017-12-29T10:26:23.393Z,1014.37
2017-12-29T10:27:25.487Z,1014.35
2017-12-29T10:28:24.107Z,1014.38
2017-12-29T10:29:23.276Z,1014.35
2017-12-29T10:30:22.643Z,1014.34
2017-12-29T10:31:23.826Z,1014.27
2017-12-29T10:32:22.758Z,1014.27
2017-12-29T10:33:25.468Z,1014.24
2017-12-29T10:34:22.922Z,1014.23
2017-12-29T10:35:23.523Z,1014.2
2017-12-29T10:36:23.247Z,1014.2
2017-12-29T10:37:23.112Z,1014.17
2017-12-29T10:38:22.917Z,1014.14
2017-12-29T10:39:23.645Z,1014.14
2017-12-29T10:40:22.762Z,1014.1
2017-12-29T10:41:23.641Z,1014.14
2017-12-29T10:42:22.754Z,1014.11
2017-12-29T10:43:22.759Z,1014.12
2017-12-29T10:44:22.756Z,1014.07
2017-12-29T10:45:23.625Z,1014.04
2017-12-29T10:46:22.779Z,1014.03
2017-12-29T10:47:23.834Z,1013.98
2017-12-29T10:48:22.830Z,1013.99
2017-12-29T10:49:22.799Z,1013.97
2017-12-29T10:50:22.965Z,1013.98
2017-12-29T10:51:22.878Z,1013.99
2017-12-29T10:52:23.461Z,1013.93
2017-12-29T10:53:23.454Z,1013.98
2017-12-29T10:54:23.422Z,1014.01
2017-12-29T10:55:23.538Z,1013.98
2017-12-29T10:56:22.952Z,1014
2017-12-29T10:57:22.787Z,1014.08
2017-12-29T10:58:22.998Z,1014.08
2017-12-29T10:59:23.098Z,1014.01
2017-12-29T11:00:23.236Z,1014
2017-12-29T11:01:25.006Z,1014.03
2017-12-29T11:02:23.487Z,1014.02
2017-12-29T11:03:23.549Z,1013.95
2017-12-29T11:04:23.566Z,1013.97
2017-12-29T11:05:23.405Z,1013.94
2017-12-29T11:06:23.605Z,1013.88
2017-12-29T11:07:23.804Z,1013.85
2017-12-29T11:08:23.019Z,1013.87
2017-12-29T11:09:23.060Z,1013.84
2017-12-29T11:10:23.172Z,1013.8
2017-12-29T11:11:23.239Z,1013.78
2017-12-29T11:12:23.711Z,1013.8
2017-12-29T11:13:23.117Z,1013.77
2017-12-29T11:14:23.291Z,1013.75
2017-12-29T11:15:23.555Z,1013.77
2017-12-29T11:16:23.618Z,1013.8
2017-12-29T11:17:23.647Z,1013.81
2017-12-29T11:18:22.927Z,1013.79
2017-12-29T11:19:23.086Z,1013.77
2017-12-29T11:20:23.231Z,1013.78
2017-12-29T11:21:23.310Z,1013.85
2017-12-29T11:22:23.434Z,1013.86
2017-12-29T11:23:23.361Z,1013.84
2017-12-29T11:24:23.209Z,1013.77
2017-12-29T11:25:23.149Z,1013.77
2017-12-29T11:26:23.483Z,1013.72
2017-12-29T11:27:23.588Z,1013.7
2017-12-29T11:28:23.595Z,1013.66
2017-12-29T11:29:23.647Z,1013.64
2017-12-29T11:30:22.882Z,1013.56
2017-12-29T11:31:22.944Z,1013.57
2017-12-29T11:32:22.994Z,1013.55
2017-12-29T11:33:22.936Z,1013.53
2017-12-29T11:34:23.146Z,1013.48
2017-12-29T11:35:23.245Z,1013.51
2017-12-29T11:36:22.606Z,1013.46
2017-12-29T11:37:22.753Z,1013.49
2017-12-29T11:38:22.845Z,1013.48
2017-12-29T11:39:22.868Z,1013.47
2017-12-29T11:40:22.923Z,1013.47
2017-12-29T11:41:23.026Z,1013.44
2017-12-29T11:42:23.156Z,1013.42
2017-12-29T11:43:23.177Z,1013.4
2017-12-29T11:44:23.590Z,1013.37
2017-12-29T11:45:22.909Z,1013.36
2017-12-29T11:46:23.008Z,1013.4
2017-12-29T11:47:23.230Z,1013.37
2017-12-29T11:48:22.500Z,1013.36
2017-12-29T11:49:23.014Z,1013.32
2017-12-29T11:50:23.133Z,1013.25
2017-12-29T11:51:23.064Z,1013.21
2017-12-29T11:52:22.334Z,1013.17
2017-12-29T11:53:22.491Z,1013.17
2017-12-29T11:54:22.765Z,1013.18
2017-12-29T11:55:23.056Z,1013.19
2017-12-29T11:56:23.168Z,1013.16
2017-12-29T11:57:22.932Z,1013.16
2017-12-29T11:58:22.817Z,1013.2
2017-12-29T11:59:23.110Z,1013.18
2017-12-29T12:00:23.111Z,1013.11
2017-12-29T12:01:23.066Z,1013.07
2017-12-29T12:02:23.128Z,1013.04
2017-12-29T12:03:23.225Z,1013.04
2017-12-29T12:04:22.352Z,1013.04
2017-12-29T12:05:22.443Z,1013.01
2017-12-29T12:06:22.757Z,1013.04
2017-12-29T12:07:22.977Z,1013